This is the latest recevied weather packets stored in our database for station/object ON4CDJ-13. If no packets are shown the sender has not sent any weather packets the latest 10 day(s).
| Time | Temp. | Humidity | Pressure | Rain* | Wind** | Luminosity | Snow |
|---|---|---|---|---|---|---|---|
| 1777814748 | 18.89° C | 75% | 1011.5 hPa | 0 mm | - | 405 W/m² | - |
| 1777812359 | 18.33° C | 80% | 1011.8 hPa | 0 mm | - | 574 W/m² | - |
| 1777809949 | 17.22° C | 85% | 1011.8 hPa | 0 mm | - | 217 W/m² | - |
| 1777808155 | 17.22° C | 87% | 1012 hPa | 0 mm | - | 213 W/m² | - |
| 1777806970 | 16.11° C | 89% | 1011.9 hPa | 0 mm | - | 166 W/m² | - |
| 1777803377 | 15.56° C | 93% | 1012.2 hPa | 0.25 mm | - | 124 W/m² | - |
| 1777802175 | 15.56° C | 92% | 1012.3 hPa | 0 mm | - | 139 W/m² | - |
| 1777801560 | 15.56° C | 92% | 1012.3 hPa | 0 mm | - | 156 W/m² | - |
| 1777799761 | 15° C | 93% | 1012.5 hPa | 0.76 mm | - | 150 W/m² | - |
| 1777796741 | 14.44° C | 93% | 1012.6 hPa | 3.3 mm | - | 63 W/m² | - |
| 1777796123 | 14.44° C | 92% | 1012.6 hPa | 3.05 mm | - | 75 W/m² | - |
| 1777793765 | 15.56° C | 90% | 1012.2 hPa | 0 mm | - | 22 W/m² | - |
| 1777791993 | 15.56° C | 91% | 1011.9 hPa | 0 mm | - | 87 W/m² | - |
| 1777789562 | 15° C | 94% | 1011.9 hPa | 0 mm | - | 67 W/m² | - |
| 1777779929 | 15° C | 95% | 1011.9 hPa | 0.51 mm | - | 0 W/m² | - |
| 1777777523 | 15° C | 95% | 1012.4 hPa | 0 mm | - | 0 W/m² | - |
| 1777766800 | 15° C | 94% | 1013.3 hPa | 0 mm | - | 0 W/m² | - |
| 1777766148 | 15° C | 94% | 1013.5 hPa | 0 mm | - | 0 W/m² | - |
| 1777763175 | 15° C | 94% | 1013.7 hPa | 0 mm | - | 0 W/m² | - |
| 1777761933 | 15° C | 94% | 1013.8 hPa | 0 mm | - | 0 W/m² | - |
| 1777761323 | 15° C | 94% | 1013.9 hPa | 0 mm | - | 0 W/m² | - |
| 1777759529 | 15° C | 94% | 1013.8 hPa | 0 mm | - | 0 W/m² | - |
| 1777755958 | 15° C | 93% | 1013.9 hPa | 0 mm | - | 0 W/m² | - |
| 1777752934 | 15° C | 92% | 1014.2 hPa | 0.76 mm | - | 0 W/m² | - |
| 1777751760 | 15° C | 92% | 1014.4 hPa | 3.56 mm | - | 0 W/m² | - |
* Rain latest hour (hover to see other rain measurements)
** Current wind speed in m/s (hover to see current wind gust speed)